00:36
Airports
History
Links
Donate
Help keep this website running!
PayPal
Bitcoin
Information on this page is community maintained and may be outdated or inaccurate and is intended for reference only or PC simulator navigating!
Always use approved charts for navigating.
NA34
Bickerdike Airstrip
Bickerdike Airstrip (NA34)
Fairmount, North Dakota, United States (58030)
4
Lat/Lng:45° 56' 43.85" N / 96° 42' 59.27" W
45.945515 / -96.716463
Elevation:1050'ft 320mMSL
ID / ICAO:NA34
Runways:1
Longest:(10-28) 708.1m 2,323ft Grass
Distance To
Airport ID:
Nearby VORs <50NM
Nearby NDBs
Nearby WeatherUpdated 03-30-17 00:16 GMT
Nearby weather at KETH, Wheaton Muni located 14.1 nautical miles from NA34
Altimeter: 30.11
Visibility: 10.0 statute miles
Wind: 14 knots (150°)
Temp: 9°c 48°f
Humidity: 61.5%

METAR: KETH 300016Z AUTO 15014KT 10SM CLR 09/02 A3011 RMK AO2

(Powered by phpweather)
Runway 10 / 28
Dimensions:708.1 x 18.3m 2323' x 60'ft
Surface:Grass
Runway 10 [A]Runway 28 [B]
Heading:106°TH 286°TH
Lat:
Lng:
45° 56' 46.98"N
96° 43' 14.97"W
45° 56' 40.72"N
96° 42' 43.57"W
Google Map
Nearby Airports
4 Beyer 7.6 NM
1MN1 ENE 75°
(R) Wetherbee Farm 10.6 NM
1MN0 NE 50°
(U) Wheaton Muni 14.1 NM
KETH (WX) SE 143°
4 Traverse Air 15.2 NM
73Y E 87°
(R) Wetenkamp 17.9 NM
29MN ENE 71°
(R) Johnsons Aero Repair 19.5 NM
MY68 SE 126°
(U) Harry Stern 21.3 NM
KBWP NNE 14°
VFR Chart
Flight Planning at SkyVector.com